Time,TemperatureF,DewpointF,PressureIn,WindDirection,WindDirectionDegrees,WindSpeedMPH,WindSpeedGustMPH,Humidity,HourlyPrecipIn,Conditions,Clouds,dailyrainin,SoftwareType,DateUTC
2013-06-25 00:00:00,68.7,46.0,0.00,North,7,0.0,0.0,44,0.00,,---,0.00,VWS V14.01,2013-06-25 04:00:00,
2013-06-25 00:01:00,68.7,46.0,0.00,North,7,0.0,0.0,44,0.00,,---,0.00,VWS V14.01,2013-06-25 04:01:00,
2013-06-25 00:02:00,68.7,46.0,0.00,North,7,0.0,0.0,44,0.00,,---,0.00,VWS V14.01,2013-06-25 04:02:00,
2013-06-25 00:06:00,68.5,45.8,0.00,North,7,0.0,0.0,44,0.00,,---,0.00,VWS V14.01,2013-06-25 04:06:00,
2013-06-25 00:07:00,68.5,45.8,0.00,North,7,0.0,0.0,44,0.00,,---,0.00,VWS V14.01,2013-06-25 04:07:00,
2013-06-25 00:12:00,68.5,45.8,0.00,North,7,0.0,0.0,44,0.00,,---,0.00,VWS V14.01,2013-06-25 04:12:00,
2013-06-25 00:17:00,68.5,45.8,0.00,North,7,0.0,0.0,44,0.00,,---,0.00,VWS V14.01,2013-06-25 04:17:00,
2013-06-25 00:22:00,68.4,46.2,0.00,North,7,0.0,0.0,45,0.00,,---,0.00,VWS V14.01,2013-06-25 04:22:00,
2013-06-25 00:27:00,68.2,45.5,0.00,North,7,0.0,0.0,44,0.00,,---,0.00,VWS V14.01,2013-06-25 04:27:00,
2013-06-25 00:32:00,68.2,46.0,0.00,North,7,0.0,0.0,45,0.00,,---,0.00,VWS V14.01,2013-06-25 04:32:00,
2013-06-25 00:37:00,68.2,46.0,0.00,North,7,0.0,0.0,45,0.00,,---,0.00,VWS V14.01,2013-06-25 04:37:00,
2013-06-25 00:43:00,68.2,46.0,0.00,North,7,0.0,0.0,45,0.00,,---,0.00,VWS V14.01,2013-06-25 04:43:00,
2013-06-25 00:49:00,68.0,45.9,0.00,North,7,0.0,0.0,45,0.00,,---,0.00,VWS V14.01,2013-06-25 04:49:00,
2013-06-25 00:54:00,68.0,45.9,0.00,North,7,0.0,0.0,45,0.00,,---,0.00,VWS V14.01,2013-06-25 04:54:00,
2013-06-25 00:59:00,68.0,45.9,0.00,North,7,0.0,0.0,45,0.00,,---,0.00,VWS V14.01,2013-06-25 04:59:00,
2013-06-25 01:04:00,68.2,46.6,0.00,North,7,0.0,0.0,46,0.00,,---,0.00,VWS V14.01,2013-06-25 05:04:00,
2013-06-25 01:09:00,68.4,46.8,0.00,North,7,0.0,0.0,46,0.00,,---,0.00,VWS V14.01,2013-06-25 05:09:00,
2013-06-25 01:15:00,68.4,46.8,0.00,North,7,0.0,0.0,46,0.00,,---,0.00,VWS V14.01,2013-06-25 05:15:00,
2013-06-25 01:20:00,68.4,47.4,0.00,North,7,0.0,0.0,47,0.00,,---,0.00,VWS V14.01,2013-06-25 05:20:00,
2013-06-25 01:26:00,68.5,47.5,0.00,North,7,0.0,0.0,47,0.00,,---,0.00,VWS V14.01,2013-06-25 05:26:00,
2013-06-25 01:31:00,68.5,48.1,0.00,North,7,0.0,0.0,48,0.00,,---,0.00,VWS V14.01,2013-06-25 05:31:00,
2013-06-25 01:37:00,68.4,47.9,0.00,North,7,0.0,0.0,48,0.00,,---,0.00,VWS V14.01,2013-06-25 05:37:00,
2013-06-25 01:42:00,68.5,48.1,0.00,North,7,0.0,0.0,48,0.00,,---,0.00,VWS V14.01,2013-06-25 05:42:00,
2013-06-25 01:47:00,68.5,48.6,0.00,North,7,0.0,0.0,49,0.00,,---,0.00,VWS V14.01,2013-06-25 05:47:00,
2013-06-25 01:52:00,68.4,48.5,0.00,North,7,0.0,0.0,49,0.00,,---,0.00,VWS V14.01,2013-06-25 05:52:00,
2013-06-25 01:57:00,68.4,49.0,0.00,North,7,0.0,0.0,50,0.00,,---,0.00,VWS V14.01,2013-06-25 05:57:00,
2013-06-25 02:02:00,68.4,48.5,0.00,North,7,0.0,0.0,49,0.00,,---,0.00,VWS V14.01,2013-06-25 06:02:00,
2013-06-25 02:07:00,68.4,49.0,0.00,North,7,0.0,0.0,50,0.00,,---,0.00,VWS V14.01,2013-06-25 06:07:00,
2013-06-25 02:12:00,68.4,49.0,0.00,North,7,0.0,0.0,50,0.00,,---,0.00,VWS V14.01,2013-06-25 06:12:00,
2013-06-25 02:18:00,68.2,48.8,0.00,North,7,0.0,0.0,50,0.00,,---,0.00,VWS V14.01,2013-06-25 06:18:00,
2013-06-25 02:23:00,68.0,48.7,0.00,North,7,0.0,0.0,50,0.00,,---,0.00,VWS V14.01,2013-06-25 06:23:00,
2013-06-25 02:29:00,68.0,48.7,0.00,North,7,0.0,0.0,50,0.00,,---,0.00,VWS V14.01,2013-06-25 06:29:00,
2013-06-25 02:34:00,68.0,48.7,0.00,North,7,0.0,0.0,50,0.00,,---,0.00,VWS V14.01,2013-06-25 06:34:00,
2013-06-25 02:40:00,67.8,49.0,0.00,North,7,0.0,0.0,51,0.00,,---,0.00,VWS V14.01,2013-06-25 06:40:00,
2013-06-25 02:45:00,67.8,49.0,0.00,North,7,0.0,0.0,51,0.00,,---,0.00,VWS V14.01,2013-06-25 06:45:00,
2013-06-25 02:51:00,67.8,49.6,0.00,North,7,0.0,0.0,52,0.00,,---,0.00,VWS V14.01,2013-06-25 06:51:00,
2013-06-25 02:56:00,67.8,49.6,0.00,North,7,0.0,0.0,52,0.00,,---,0.00,VWS V14.01,2013-06-25 06:56:00,
2013-06-25 03:01:00,67.6,49.4,0.00,North,7,0.0,0.0,52,0.00,,---,0.00,VWS V14.01,2013-06-25 07:01:00,
2013-06-25 03:08:00,67.5,49.2,0.00,North,7,0.0,0.0,52,0.00,,---,0.00,VWS V14.01,2013-06-25 07:08:00,
2013-06-25 03:13:00,67.3,49.1,0.00,North,7,0.0,0.0,52,0.00,,---,0.00,VWS V14.01,2013-06-25 07:13:00,
2013-06-25 03:18:00,67.1,48.9,0.00,North,7,0.0,0.0,52,0.00,,---,0.00,VWS V14.01,2013-06-25 07:18:00,
2013-06-25 03:25:00,67.1,49.4,0.00,North,7,0.0,0.0,53,0.00,,---,0.00,VWS V14.01,2013-06-25 07:25:00,
2013-06-25 03:30:00,67.1,49.4,0.00,North,7,0.0,0.0,53,0.00,,---,0.00,VWS V14.01,2013-06-25 07:30:00,
2013-06-25 03:36:00,66.9,49.2,0.00,North,7,0.0,0.0,53,0.00,,---,0.00,VWS V14.01,2013-06-25 07:36:00,
2013-06-25 03:41:00,66.9,49.2,0.00,North,7,0.0,0.0,53,0.00,,---,0.00,VWS V14.01,2013-06-25 07:41:00,
2013-06-25 03:47:00,66.9,49.8,0.00,North,7,0.0,0.0,54,0.00,,---,0.00,VWS V14.01,2013-06-25 07:47:00,
2013-06-25 03:52:00,66.9,49.8,0.00,North,7,0.0,0.0,54,0.00,,---,0.00,VWS V14.01,2013-06-25 07:52:00,
2013-06-25 03:57:00,66.7,49.6,0.00,North,7,0.0,0.0,54,0.00,,---,0.00,VWS V14.01,2013-06-25 07:57:00,
2013-06-25 04:03:00,66.6,49.4,0.00,North,7,0.0,0.0,54,0.00,,---,0.00,VWS V14.01,2013-06-25 08:03:00,
2013-06-25 04:08:00,66.6,49.9,0.00,North,7,0.0,0.0,55,0.00,,---,0.00,VWS V14.01,2013-06-25 08:08:00,
2013-06-25 04:14:00,66.6,50.4,0.00,North,7,0.0,0.0,56,0.00,,---,0.00,VWS V14.01,2013-06-25 08:14:00,
2013-06-25 04:19:00,66.6,49.9,0.00,North,7,0.0,0.0,55,0.00,,---,0.00,VWS V14.01,2013-06-25 08:19:00,
2013-06-25 04:25:00,66.4,49.7,0.00,North,7,0.0,0.0,55,0.00,,---,0.00,VWS V14.01,2013-06-25 08:25:00,
2013-06-25 04:30:00,66.4,50.2,0.00,North,7,0.0,0.0,56,0.00,,---,0.00,VWS V14.01,2013-06-25 08:30:00,
2013-06-25 04:35:00,66.4,50.7,0.00,North,7,0.0,0.0,57,0.00,,---,0.00,VWS V14.01,2013-06-25 08:35:00,
2013-06-25 04:41:00,66.4,51.2,0.00,North,7,0.0,0.0,58,0.00,,---,0.00,VWS V14.01,2013-06-25 08:41:00,
2013-06-25 04:46:00,66.6,51.3,0.00,North,7,0.0,0.0,58,0.00,,---,0.00,VWS V14.01,2013-06-25 08:46:00,
2013-06-25 04:52:00,66.7,52.4,0.00,North,7,0.0,0.0,60,0.00,,---,0.00,VWS V14.01,2013-06-25 08:52:00,
2013-06-25 04:57:00,66.7,52.0,0.00,North,7,0.0,0.0,59,0.00,,---,0.00,VWS V14.01,2013-06-25 08:57:00,
2013-06-25 05:02:00,66.7,52.4,0.00,North,7,0.0,0.0,60,0.00,,---,0.00,VWS V14.01,2013-06-25 09:02:00,
2013-06-25 05:07:00,66.7,52.4,0.00,North,7,0.0,0.0,60,0.00,,---,0.00,VWS V14.01,2013-06-25 09:07:00,
2013-06-25 05:13:00,66.9,52.6,0.00,North,7,0.0,0.0,60,0.00,,---,0.00,VWS V14.01,2013-06-25 09:13:00,
2013-06-25 05:19:00,66.7,52.4,0.00,North,7,0.0,0.0,60,0.00,,---,0.00,VWS V14.01,2013-06-25 09:19:00,
2013-06-25 05:24:00,66.4,52.1,0.00,North,7,0.0,0.0,60,0.00,,---,0.00,VWS V14.01,2013-06-25 09:24:00,
2013-06-25 05:30:00,66.4,52.5,0.00,North,7,0.0,0.0,61,0.00,,---,0.00,VWS V14.01,2013-06-25 09:30:00,
2013-06-25 05:35:00,66.2,52.4,0.00,North,7,0.0,0.0,61,0.00,,---,0.00,VWS V14.01,2013-06-25 09:35:00,
2013-06-25 05:40:00,66.2,52.4,0.00,North,7,0.0,0.0,61,0.00,,---,0.00,VWS V14.01,2013-06-25 09:40:00,
2013-06-25 05:45:00,66.2,52.4,0.00,North,7,0.0,0.0,61,0.00,,---,0.00,VWS V14.01,2013-06-25 09:45:00,
2013-06-25 05:51:00,66.2,52.4,0.00,North,7,0.0,0.0,61,0.00,,---,0.00,VWS V14.01,2013-06-25 09:51:00,
2013-06-25 05:58:00,66.4,53.0,0.00,North,7,0.0,0.0,62,0.00,,---,0.00,VWS V14.01,2013-06-25 09:58:00,
2013-06-25 06:03:00,66.4,53.4,0.00,North,7,0.0,0.0,63,0.00,,---,0.00,VWS V14.01,2013-06-25 10:03:00,
2013-06-25 06:08:00,66.4,53.4,0.00,North,7,0.0,0.0,63,0.00,,---,0.00,VWS V14.01,2013-06-25 10:08:00,
2013-06-25 06:13:00,66.4,53.0,0.00,North,7,0.0,0.0,62,0.00,,---,0.00,VWS V14.01,2013-06-25 10:13:00,
2013-06-25 06:19:00,66.4,53.4,0.00,North,7,0.0,0.0,63,0.00,,---,0.00,VWS V14.01,2013-06-25 10:19:00,
2013-06-25 06:25:00,66.4,53.4,0.00,North,7,0.0,0.0,63,0.00,,---,0.00,VWS V14.01,2013-06-25 10:25:00,
2013-06-25 06:30:00,66.4,53.8,0.00,North,7,0.0,0.0,64,0.00,,---,0.00,VWS V14.01,2013-06-25 10:30:00,
2013-06-25 06:36:00,66.7,54.2,0.00,North,7,0.0,0.0,64,0.00,,---,0.00,VWS V14.01,2013-06-25 10:36:00,
2013-06-25 06:42:00,66.9,54.4,0.00,North,7,0.0,0.0,64,0.00,,---,0.00,VWS V14.01,2013-06-25 10:42:00,
2013-06-25 06:47:00,66.9,54.4,0.00,North,7,0.0,0.0,64,0.00,,---,0.00,VWS V14.01,2013-06-25 10:47:00,
2013-06-25 06:52:00,67.1,54.5,0.00,North,7,0.0,0.0,64,0.00,,---,0.00,VWS V14.01,2013-06-25 10:52:00,
2013-06-25 06:58:00,67.5,55.3,0.00,North,7,0.0,0.0,65,0.00,,---,0.00,VWS V14.01,2013-06-25 10:58:00,
2013-06-25 07:04:00,67.8,56.1,0.00,North,7,0.0,0.0,66,0.00,,---,0.00,VWS V14.01,2013-06-25 11:04:00,
2013-06-25 07:10:00,68.4,56.2,0.00,North,7,0.0,0.0,65,0.00,,---,0.00,VWS V14.01,2013-06-25 11:10:00,
2013-06-25 07:16:00,68.7,56.5,0.00,North,7,0.0,0.0,65,0.00,,---,0.00,VWS V14.01,2013-06-25 11:16:00,
2013-06-25 07:21:00,69.3,57.0,0.00,North,7,0.0,0.0,65,0.00,,---,0.00,VWS V14.01,2013-06-25 11:21:00,
2013-06-25 07:26:00,69.8,57.5,0.00,North,7,0.0,0.0,65,0.00,,---,0.00,VWS V14.01,2013-06-25 11:26:00,
2013-06-25 07:33:00,70.5,58.2,0.00,North,7,0.0,0.0,65,0.00,,---,0.00,VWS V14.01,2013-06-25 11:33:00,
2013-06-25 07:38:00,71.2,58.5,0.00,North,7,0.0,0.0,64,0.00,,---,0.00,VWS V14.01,2013-06-25 11:38:00,
2013-06-25 07:44:00,71.8,58.5,0.00,North,7,0.0,0.0,63,0.00,,---,0.00,VWS V14.01,2013-06-25 11:44:00,
2013-06-25 07:49:00,72.5,58.8,0.00,North,7,0.0,0.0,62,0.00,,---,0.00,VWS V14.01,2013-06-25 11:49:00,
2013-06-25 07:55:00,72.3,57.2,0.00,North,357,0.0,0.0,59,0.00,,---,0.00,VWS V14.01,2013-06-25 11:55:00,
2013-06-25 08:01:00,72.3,56.7,0.00,North,357,0.0,0.0,58,0.00,,---,0.00,VWS V14.01,2013-06-25 12:01:00,
2013-06-25 08:06:00,72.1,56.1,0.00,North,357,0.0,0.0,57,0.00,,---,0.00,VWS V14.01,2013-06-25 12:06:00,
2013-06-25 08:11:00,72.3,55.3,0.00,North,357,0.0,0.0,55,0.00,,---,0.00,VWS V14.01,2013-06-25 12:11:00,
2013-06-25 08:16:00,72.3,54.8,0.00,North,357,0.0,0.0,54,0.00,,---,0.00,VWS V14.01,2013-06-25 12:16:00,
2013-06-25 08:23:00,73.0,53.9,0.00,NNE,25,0.0,0.0,51,0.00,,---,0.00,VWS V14.01,2013-06-25 12:23:00,
2013-06-25 08:28:00,73.9,53.6,0.00,NNE,25,0.0,0.0,49,0.00,,---,0.00,VWS V14.01,2013-06-25 12:28:00,
2013-06-25 08:33:00,74.5,53.0,0.00,NNE,25,0.0,0.0,47,0.00,,---,0.00,VWS V14.01,2013-06-25 12:33:00,
2013-06-25 08:39:00,75.0,53.4,0.00,East,86,0.0,0.0,47,0.00,,---,0.00,VWS V14.01,2013-06-25 12:39:00,
2013-06-25 08:45:00,75.6,52.1,0.00,East,96,0.0,0.0,44,0.00,,---,0.00,VWS V14.01,2013-06-25 12:45:00,
2013-06-25 08:50:00,75.7,50.4,0.00,ESE,122,0.0,0.0,41,0.00,,---,0.00,VWS V14.01,2013-06-25 12:50:00,
2013-06-25 08:55:00,76.3,49.5,0.00,ESE,122,0.0,0.0,39,0.00,,---,0.00,VWS V14.01,2013-06-25 12:55:00,
2013-06-25 09:01:00,76.6,49.2,0.00,SE,137,0.0,0.0,38,0.00,,---,0.00,VWS V14.01,2013-06-25 13:01:00,
2013-06-25 09:08:00,77.0,46.5,0.00,SE,145,0.0,0.0,34,0.00,,---,0.00,VWS V14.01,2013-06-25 13:08:00,
2013-06-25 09:13:00,77.4,46.0,0.00,SE,145,0.0,0.0,33,0.00,,---,0.00,VWS V14.01,2013-06-25 13:13:00,
2013-06-25 09:19:00,78.3,46.0,0.00,SE,145,0.0,0.0,32,0.00,,---,0.00,VWS V14.01,2013-06-25 13:19:00,
2013-06-25 09:24:00,79.3,46.1,0.00,SE,145,0.0,0.0,31,0.00,,---,0.00,VWS V14.01,2013-06-25 13:24:00,
2013-06-25 09:30:00,80.2,46.0,0.00,SSE,160,0.0,0.0,30,0.00,,---,0.00,VWS V14.01,2013-06-25 13:30:00,
2013-06-25 09:36:00,80.4,46.2,0.00,SE,141,0.0,0.0,30,0.00,,---,0.00,VWS V14.01,2013-06-25 13:36:00,
2013-06-25 09:41:00,80.8,46.5,0.00,SE,139,0.0,0.0,30,0.00,,---,0.00,VWS V14.01,2013-06-25 13:41:00,
2013-06-25 09:46:00,81.0,46.6,0.00,SE,139,0.0,0.0,30,0.00,,---,0.00,VWS V14.01,2013-06-25 13:46:00,
2013-06-25 09:53:00,83.3,47.8,0.00,SE,139,0.0,0.0,29,0.00,,---,0.00,VWS V14.01,2013-06-25 13:53:00,
2013-06-25 09:58:00,87.8,50.7,0.00,SE,139,0.0,0.0,28,0.00,,---,0.00,VWS V14.01,2013-06-25 13:58:00,
2013-06-25 10:04:00,90.0,52.5,0.00,SE,139,0.0,0.0,28,0.00,,---,0.00,VWS V14.01,2013-06-25 14:04:00,
2013-06-25 10:09:00,91.6,52.9,0.00,SE,137,0.0,0.0,27,0.00,,---,0.00,VWS V14.01,2013-06-25 14:09:00,
2013-06-25 10:14:00,93.6,54.6,0.00,SE,137,0.0,0.0,27,0.00,,---,0.00,VWS V14.01,2013-06-25 14:14:00,
2013-06-25 10:19:00,92.7,53.8,0.00,SE,137,0.0,0.0,27,0.00,,---,0.00,VWS V14.01,2013-06-25 14:19:00,
2013-06-25 10:24:00,91.6,52.9,0.00,SE,137,0.0,0.0,27,0.00,,---,0.00,VWS V14.01,2013-06-25 14:24:00,
2013-06-25 10:29:00,90.1,52.7,0.00,SE,140,0.0,0.0,28,0.00,,---,0.00,VWS V14.01,2013-06-25 14:29:00,
2013-06-25 10:35:00,89.6,52.2,0.00,SE,139,0.0,0.0,28,0.00,,---,0.00,VWS V14.01,2013-06-25 14:35:00,
2013-06-25 10:41:00,89.4,52.1,0.00,ESE,123,0.0,0.0,28,0.00,,---,0.00,VWS V14.01,2013-06-25 14:41:00,
2013-06-25 10:46:00,89.2,51.9,0.00,ESE,123,0.0,0.0,28,0.00,,---,0.00,VWS V14.01,2013-06-25 14:46:00,
2013-06-25 10:51:00,89.6,52.2,0.00,SSE,158,0.0,0.0,28,0.00,,---,0.00,VWS V14.01,2013-06-25 14:51:00,
2013-06-25 10:57:00,90.7,53.1,0.00,SSE,162,0.0,0.0,28,0.00,,---,0.00,VWS V14.01,2013-06-25 14:57:00,
2013-06-25 11:04:00,90.7,53.1,0.00,SSE,162,0.0,0.0,28,0.00,,---,0.00,VWS V14.01,2013-06-25 15:04:00,
2013-06-25 11:09:00,90.5,53.0,0.00,SSE,168,0.0,0.0,28,0.00,,---,0.00,VWS V14.01,2013-06-25 15:09:00,
2013-06-25 11:14:00,90.5,53.0,0.00,SW,227,0.0,0.0,28,0.00,,---,0.00,VWS V14.01,2013-06-25 15:14:00,
2013-06-25 11:20:00,91.2,53.6,0.00,SE,145,0.0,0.0,28,0.00,,---,0.00,VWS V14.01,2013-06-25 15:20:00,
2013-06-25 11:25:00,90.7,53.1,0.00,WSW,256,0.0,0.0,28,0.00,,---,0.00,VWS V14.01,2013-06-25 15:25:00,
2013-06-25 11:31:00,90.9,53.3,0.00,West,265,0.0,0.0,28,0.00,,---,0.00,VWS V14.01,2013-06-25 15:31:00,
2013-06-25 11:37:00,91.6,52.9,0.00,West,280,0.0,0.0,27,0.00,,---,0.00,VWS V14.01,2013-06-25 15:37:00,
2013-06-25 11:42:00,92.3,53.5,0.00,SSE,167,0.0,0.0,27,0.00,,---,0.00,VWS V14.01,2013-06-25 15:42:00,
2013-06-25 11:48:00,92.8,54.0,0.00,SSE,168,0.0,0.0,27,0.00,,---,0.00,VWS V14.01,2013-06-25 15:48:00,
2013-06-25 11:53:00,93.4,54.4,0.00,SSE,168,0.0,0.0,27,0.00,,---,0.00,VWS V14.01,2013-06-25 15:53:00,
2013-06-25 11:59:00,94.1,55.0,0.00,SSW,213,0.0,0.0,27,0.00,,---,0.00,VWS V14.01,2013-06-25 15:59:00,
2013-06-25 12:04:00,94.1,55.0,0.00,SSW,213,0.0,0.0,27,0.00,,---,0.00,VWS V14.01,2013-06-25 16:04:00,
2013-06-25 12:10:00,94.3,55.2,0.00,West,267,0.0,0.0,27,0.00,,---,0.00,VWS V14.01,2013-06-25 16:10:00,
2013-06-25 12:15:00,94.8,55.7,0.00,West,267,0.0,0.0,27,0.00,,---,0.00,VWS V14.01,2013-06-25 16:15:00,
2013-06-25 12:21:00,94.8,55.7,0.00,SSE,156,0.0,0.0,27,0.00,,---,0.00,VWS V14.01,2013-06-25 16:21:00,
2013-06-25 12:26:00,94.1,55.0,0.00,SSW,199,0.0,0.0,27,0.00,,---,0.00,VWS V14.01,2013-06-25 16:26:00,
2013-06-25 12:31:00,92.7,53.8,0.00,SSW,199,0.0,0.0,27,0.00,,---,0.00,VWS V14.01,2013-06-25 16:31:00,
2013-06-25 12:36:00,91.2,53.6,0.00,WSW,257,0.0,0.0,28,0.00,,---,0.00,VWS V14.01,2013-06-25 16:36:00,
2013-06-25 12:42:00,90.3,52.8,0.00,WSW,257,0.0,0.0,28,0.00,,---,0.00,VWS V14.01,2013-06-25 16:42:00,
2013-06-25 12:48:00,90.3,52.8,0.00,WSW,257,0.0,0.0,28,0.00,,---,0.00,VWS V14.01,2013-06-25 16:48:00,
2013-06-25 12:53:00,91.4,52.8,0.00,West,277,0.0,0.0,27,0.00,,---,0.00,VWS V14.01,2013-06-25 16:53:00,
2013-06-25 12:58:00,92.8,54.0,0.00,WNW,293,0.0,0.0,27,0.00,,---,0.00,VWS V14.01,2013-06-25 16:58:00,
2013-06-25 13:03:00,92.7,53.8,0.00,WNW,297,0.0,0.0,27,0.00,,---,0.00,VWS V14.01,2013-06-25 17:03:00,
2013-06-25 13:08:00,92.7,53.8,0.00,West,270,0.0,0.0,27,0.00,,---,0.00,VWS V14.01,2013-06-25 17:08:00,
2013-06-25 13:14:00,92.8,54.0,0.00,West,279,0.0,0.0,27,0.00,,---,0.00,VWS V14.01,2013-06-25 17:14:00,
2013-06-25 13:19:00,91.4,52.8,0.00,West,278,0.0,0.0,27,0.00,,---,0.00,VWS V14.01,2013-06-25 17:19:00,
2013-06-25 13:24:00,90.3,52.8,0.00,West,278,0.0,0.0,28,0.00,,---,0.00,VWS V14.01,2013-06-25 17:24:00,
2013-06-25 13:30:00,90.1,52.7,0.00,West,278,0.0,0.0,28,0.00,,---,0.00,VWS V14.01,2013-06-25 17:30:00,
2013-06-25 13:36:00,90.7,53.1,0.00,WSW,258,0.0,0.0,28,0.00,,---,0.00,VWS V14.01,2013-06-25 17:36:00,
2013-06-25 13:41:00,91.0,53.4,0.00,SE,143,0.0,0.0,28,0.00,,---,0.00,VWS V14.01,2013-06-25 17:41:00,
2013-06-25 13:46:00,90.5,53.0,0.00,SSW,207,0.0,0.0,28,0.00,,---,0.00,VWS V14.01,2013-06-25 17:46:00,
2013-06-25 13:52:00,90.0,52.5,0.00,SSE,159,0.0,0.0,28,0.00,,---,0.00,VWS V14.01,2013-06-25 17:52:00,
2013-06-25 13:58:00,89.6,52.2,0.00,WSW,256,0.0,0.0,28,0.00,,---,0.00,VWS V14.01,2013-06-25 17:58:00,
2013-06-25 14:03:00,89.2,51.9,0.00,West,266,0.0,0.0,28,0.00,,---,0.00,VWS V14.01,2013-06-25 18:03:00,
2013-06-25 14:08:00,89.2,51.9,0.00,West,265,0.0,0.0,28,0.00,,---,0.00,VWS V14.01,2013-06-25 18:08:00,
2013-06-25 14:13:00,89.2,51.9,0.00,West,264,0.0,0.0,28,0.00,,---,0.00,VWS V14.01,2013-06-25 18:13:00,
2013-06-25 14:19:00,89.2,51.9,0.00,NW,306,0.0,0.0,28,0.00,,---,0.00,VWS V14.01,2013-06-25 18:19:00,
2013-06-25 14:25:00,89.6,52.2,0.00,WNW,285,0.0,0.0,28,0.00,,---,0.00,VWS V14.01,2013-06-25 18:25:00,
2013-06-25 14:30:00,90.0,52.5,0.00,WNW,288,0.0,0.0,28,0.00,,---,0.00,VWS V14.01,2013-06-25 18:30:00,
2013-06-25 14:36:00,90.3,52.8,0.00,West,263,0.0,0.0,28,0.00,,---,0.00,VWS V14.01,2013-06-25 18:36:00,
2013-06-25 14:42:00,90.1,52.7,0.00,SE,143,0.0,0.0,28,0.00,,---,0.00,VWS V14.01,2013-06-25 18:42:00,
2013-06-25 14:48:00,90.1,52.7,0.00,South,184,0.0,0.0,28,0.00,,---,0.00,VWS V14.01,2013-06-25 18:48:00,
2013-06-25 14:54:00,90.1,52.7,0.00,WNW,290,0.0,0.0,28,0.00,,---,0.00,VWS V14.01,2013-06-25 18:54:00,
2013-06-25 14:59:00,90.3,52.8,0.00,South,181,0.0,0.0,28,0.00,,---,0.00,VWS V14.01,2013-06-25 18:59:00,
2013-06-25 15:05:00,90.1,52.7,0.00,SSW,192,0.0,0.0,28,0.00,,---,0.00,VWS V14.01,2013-06-25 19:05:00,
2013-06-25 15:10:00,90.3,52.8,0.00,SSW,199,0.0,0.0,28,0.00,,---,0.00,VWS V14.01,2013-06-25 19:10:00,
2013-06-25 15:16:00,90.0,52.5,0.00,WSW,256,0.0,0.0,28,0.00,,---,0.00,VWS V14.01,2013-06-25 19:16:00,
2013-06-25 15:21:00,90.0,52.5,0.00,West,265,0.0,0.0,28,0.00,,---,0.00,VWS V14.01,2013-06-25 19:21:00,
2013-06-25 15:27:00,90.0,52.5,0.00,West,268,0.0,0.0,28,0.00,,---,0.00,VWS V14.01,2013-06-25 19:27:00,
2013-06-25 15:33:00,90.1,52.7,0.00,West,274,0.0,0.0,28,0.00,,---,0.00,VWS V14.01,2013-06-25 19:33:00,
2013-06-25 15:38:00,90.1,52.7,0.00,West,262,0.0,0.0,28,0.00,,---,0.00,VWS V14.01,2013-06-25 19:38:00,
2013-06-25 15:43:00,90.0,52.5,0.00,West,279,0.0,0.0,28,0.00,,---,0.00,VWS V14.01,2013-06-25 19:43:00,
2013-06-25 15:48:00,90.0,52.5,0.00,West,275,0.0,0.0,28,0.00,,---,0.00,VWS V14.01,2013-06-25 19:48:00,
2013-06-25 15:53:00,90.0,52.5,0.00,West,275,0.0,0.0,28,0.00,,---,0.00,VWS V14.01,2013-06-25 19:53:00,
2013-06-25 15:58:00,90.1,52.7,0.00,West,281,0.0,0.0,28,0.00,,---,0.00,VWS V14.01,2013-06-25 19:58:00,
2013-06-25 16:03:00,90.1,52.7,0.00,West,270,0.0,0.0,28,0.00,,---,0.00,VWS V14.01,2013-06-25 20:03:00,
2013-06-25 16:08:00,90.3,52.8,0.00,West,270,0.0,0.0,28,0.00,,---,0.00,VWS V14.01,2013-06-25 20:08:00,
2013-06-25 16:13:00,90.1,52.7,0.00,West,270,0.0,0.0,28,0.00,,---,0.00,VWS V14.01,2013-06-25 20:13:00,
2013-06-25 16:19:00,89.8,52.4,0.00,WNW,284,0.0,0.0,28,0.00,,---,0.00,VWS V14.01,2013-06-25 20:19:00,
2013-06-25 16:24:00,89.4,52.1,0.00,WNW,284,0.0,0.0,28,0.00,,---,0.00,VWS V14.01,2013-06-25 20:24:00,
2013-06-25 16:29:00,89.2,51.9,0.00,West,272,0.0,0.0,28,0.00,,---,0.00,VWS V14.01,2013-06-25 20:29:00,
2013-06-25 16:35:00,89.1,51.8,0.00,West,272,0.0,0.0,28,0.00,,---,0.00,VWS V14.01,2013-06-25 20:35:00,
2013-06-25 16:40:00,89.1,51.8,0.00,West,272,0.0,0.0,28,0.00,,---,0.00,VWS V14.01,2013-06-25 20:40:00,
2013-06-25 16:46:00,89.2,51.9,0.00,West,270,0.0,0.0,28,0.00,,---,0.00,VWS V14.01,2013-06-25 20:46:00,
2013-06-25 16:52:00,89.4,52.1,0.00,West,270,0.0,0.0,28,0.00,,---,0.00,VWS V14.01,2013-06-25 20:52:00,
2013-06-25 16:58:00,89.6,52.2,0.00,West,272,0.0,0.0,28,0.00,,---,0.00,VWS V14.01,2013-06-25 20:58:00,
2013-06-25 17:03:00,89.6,52.2,0.00,West,272,0.0,0.0,28,0.00,,---,0.00,VWS V14.01,2013-06-25 21:03:00,
2013-06-25 17:08:00,89.4,52.1,0.00,West,272,0.0,0.0,28,0.00,,---,0.00,VWS V14.01,2013-06-25 21:08:00,
2013-06-25 17:14:00,89.4,52.1,0.00,West,281,0.0,0.0,28,0.00,,---,0.00,VWS V14.01,2013-06-25 21:14:00,
2013-06-25 17:19:00,89.2,51.9,0.00,West,275,0.0,0.0,28,0.00,,---,0.00,VWS V14.01,2013-06-25 21:19:00,
2013-06-25 17:25:00,89.2,51.9,0.00,WNW,284,0.0,0.0,28,0.00,,---,0.00,VWS V14.01,2013-06-25 21:25:00,
2013-06-25 17:30:00,89.2,51.9,0.00,WNW,284,0.0,0.0,28,0.00,,---,0.00,VWS V14.01,2013-06-25 21:30:00,
2013-06-25 17:36:00,89.1,51.8,0.00,SW,228,0.0,0.0,28,0.00,,---,0.00,VWS V14.01,2013-06-25 21:36:00,
2013-06-25 17:41:00,88.9,51.6,0.00,SW,228,0.0,0.0,28,0.00,,---,0.00,VWS V14.01,2013-06-25 21:41:00,
2013-06-25 17:47:00,88.9,51.6,0.00,WSW,250,0.0,0.0,28,0.00,,---,0.00,VWS V14.01,2013-06-25 21:47:00,
2013-06-25 17:53:00,88.9,51.6,0.00,SSW,202,0.0,0.0,28,0.00,,---,0.00,VWS V14.01,2013-06-25 21:53:00,
2013-06-25 17:58:00,88.7,51.4,0.00,SSE,165,0.0,0.0,28,0.00,,---,0.00,VWS V14.01,2013-06-25 21:58:00,
2013-06-25 18:04:00,88.3,51.1,0.00,SSE,165,0.0,0.0,28,0.00,,---,0.00,VWS V14.01,2013-06-25 22:04:00,
2013-06-25 18:09:00,88.2,51.0,0.00,SSE,165,0.0,0.0,28,0.00,,---,0.00,VWS V14.01,2013-06-25 22:09:00,
2013-06-25 18:14:00,88.2,51.0,0.00,SSE,165,0.0,0.0,28,0.00,,---,0.00,VWS V14.01,2013-06-25 22:14:00,
2013-06-25 18:19:00,88.0,50.8,0.00,SSE,165,0.0,0.0,28,0.00,,---,0.00,VWS V14.01,2013-06-25 22:19:00,
2013-06-25 18:25:00,87.4,51.3,0.00,SSE,165,0.0,0.0,29,0.00,,---,0.00,VWS V14.01,2013-06-25 22:25:00,
2013-06-25 18:30:00,87.3,51.2,0.00,SSE,165,0.0,0.0,29,0.00,,---,0.00,VWS V14.01,2013-06-25 22:30:00,
2013-06-25 18:36:00,86.9,50.8,0.00,SSE,165,0.0,0.0,29,0.00,,---,0.00,VWS V14.01,2013-06-25 22:36:00,
2013-06-25 18:41:00,86.7,50.7,0.00,SSE,165,0.0,0.0,29,0.00,,---,0.00,VWS V14.01,2013-06-25 22:41:00,
2013-06-25 18:46:00,86.5,50.5,0.00,SSE,165,0.0,0.0,29,0.00,,---,0.00,VWS V14.01,2013-06-25 22:46:00,
2013-06-25 18:51:00,86.4,50.4,0.00,SSE,165,0.0,0.0,29,0.00,,---,0.00,VWS V14.01,2013-06-25 22:51:00,
2013-06-25 18:56:00,86.0,50.1,0.00,SSE,165,0.0,0.0,29,0.00,,---,0.00,VWS V14.01,2013-06-25 22:56:00,
2013-06-25 19:01:00,85.6,49.8,0.00,SSE,165,0.0,0.0,29,0.00,,---,0.00,VWS V14.01,2013-06-25 23:01:00,
2013-06-25 19:07:00,85.3,49.5,0.00,SSE,165,0.0,0.0,29,0.00,,---,0.00,VWS V14.01,2013-06-25 23:07:00,
2013-06-25 19:13:00,84.9,49.2,0.00,SSE,165,0.0,0.0,29,0.00,,---,0.00,VWS V14.01,2013-06-25 23:13:00,
2013-06-25 19:18:00,84.7,49.0,0.00,SSE,165,0.0,0.0,29,0.00,,---,0.00,VWS V14.01,2013-06-25 23:18:00,
2013-06-25 19:24:00,84.6,48.8,0.00,SSE,165,0.0,0.0,29,0.00,,---,0.00,VWS V14.01,2013-06-25 23:24:00,
2013-06-25 19:30:00,84.4,48.7,0.00,SSE,165,0.0,0.0,29,0.00,,---,0.00,VWS V14.01,2013-06-25 23:30:00,
2013-06-25 19:35:00,84.2,48.5,0.00,SSE,165,0.0,0.0,29,0.00,,---,0.00,VWS V14.01,2013-06-25 23:35:00,
2013-06-25 19:40:00,84.2,48.5,0.00,SSE,165,0.0,0.0,29,0.00,,---,0.00,VWS V14.01,2013-06-25 23:40:00,
2013-06-25 19:46:00,84.0,48.4,0.00,SSE,165,0.0,0.0,29,0.00,,---,0.00,VWS V14.01,2013-06-25 23:46:00,
2013-06-25 19:52:00,83.7,48.1,0.00,SSE,165,0.0,0.0,29,0.00,,---,0.00,VWS V14.01,2013-06-25 23:52:00,
2013-06-25 19:58:00,83.3,47.8,0.00,SSE,165,0.0,0.0,29,0.00,,---,0.00,VWS V14.01,2013-06-25 23:58:00,
2013-06-25 20:03:00,82.9,47.5,0.00,SSE,165,0.0,0.0,29,0.00,,---,0.00,VWS V14.01,2013-06-26 00:03:00,
2013-06-25 20:08:00,82.6,47.1,0.00,SSE,165,0.0,0.0,29,0.00,,---,0.00,VWS V14.01,2013-06-26 00:08:00,
2013-06-25 20:13:00,82.2,47.7,0.00,SSE,165,0.0,0.0,30,0.00,,---,0.00,VWS V14.01,2013-06-26 00:13:00,
2013-06-25 20:18:00,81.7,47.3,0.00,SSE,165,0.0,0.0,30,0.00,,---,0.00,VWS V14.01,2013-06-26 00:18:00,
2013-06-25 20:23:00,81.3,47.0,0.00,SSE,165,0.0,0.0,30,0.00,,---,0.00,VWS V14.01,2013-06-26 00:23:00,
2013-06-25 20:28:00,81.0,46.6,0.00,SSE,165,0.0,0.0,30,0.00,,---,0.00,VWS V14.01,2013-06-26 00:28:00,
2013-06-25 20:34:00,80.4,46.2,0.00,SSE,165,0.0,0.0,30,0.00,,---,0.00,VWS V14.01,2013-06-26 00:34:00,
2013-06-25 20:39:00,80.2,46.0,0.00,SSE,165,0.0,0.0,30,0.00,,---,0.00,VWS V14.01,2013-06-26 00:39:00,
2013-06-25 20:45:00,79.9,45.7,0.00,SSE,165,0.0,0.0,30,0.00,,---,0.00,VWS V14.01,2013-06-26 00:45:00,
2013-06-25 20:50:00,79.7,45.6,0.00,SSE,165,0.0,0.0,30,0.00,,---,0.00,VWS V14.01,2013-06-26 00:50:00,
2013-06-25 20:55:00,79.5,45.4,0.00,SSE,165,0.0,0.0,30,0.00,,---,0.00,VWS V14.01,2013-06-26 00:55:00,
2013-06-25 21:02:00,79.5,45.4,0.00,SSE,165,0.0,0.0,30,0.00,,---,0.00,VWS V14.01,2013-06-26 01:02:00,
2013-06-25 21:07:00,79.5,45.4,0.00,SSE,165,0.0,0.0,30,0.00,,---,0.00,VWS V14.01,2013-06-26 01:07:00,
2013-06-25 21:13:00,79.3,45.2,0.00,SSE,165,0.0,0.0,30,0.00,,---,0.00,VWS V14.01,2013-06-26 01:13:00,
2013-06-25 21:19:00,79.3,46.1,0.00,South,177,2.7,2.7,31,0.00,,---,0.00,VWS V14.01,2013-06-26 01:19:00,
2013-06-25 21:24:00,79.3,45.2,0.00,WSW,244,4.0,6.3,30,0.00,,---,0.00,VWS V14.01,2013-06-26 01:24:00,
2013-06-25 21:30:00,75.2,42.5,0.00,SE,143,2.7,4.0,31,0.00,,---,0.00,VWS V14.01,2013-06-26 01:30:00,
2013-06-25 21:35:00,70.2,39.7,0.00,SSE,163,0.0,2.2,33,0.00,,---,0.00,VWS V14.01,2013-06-26 01:35:00,
2013-06-25 21:40:00,68.7,41.4,0.00,SE,142,0.0,0.0,37,0.00,,---,0.00,VWS V14.01,2013-06-26 01:40:00,
2013-06-25 21:45:00,68.2,43.0,0.00,SSE,157,0.0,0.0,40,0.00,,---,0.00,VWS V14.01,2013-06-26 01:45:00,
2013-06-25 21:51:00,68.0,45.9,0.00,SSE,162,0.0,0.0,45,0.00,,---,0.00,VWS V14.01,2013-06-26 01:51:00,
2013-06-25 21:56:00,67.8,46.3,0.00,SSE,147,0.0,0.0,46,0.00,,---,0.00,VWS V14.01,2013-06-26 01:56:00,
2013-06-25 22:01:00,67.8,45.7,0.00,SSE,147,0.0,0.0,45,0.00,,---,0.00,VWS V14.01,2013-06-26 02:01:00,
2013-06-25 22:07:00,68.0,46.5,0.00,SSE,147,0.0,0.0,46,0.00,,---,0.00,VWS V14.01,2013-06-26 02:07:00,
2013-06-25 22:12:00,68.0,46.5,0.00,SSE,147,0.0,0.0,46,0.00,,---,0.00,VWS V14.01,2013-06-26 02:12:00,
2013-06-25 22:17:00,68.0,47.0,0.00,SSE,147,0.0,0.0,47,0.00,,---,0.00,VWS V14.01,2013-06-26 02:17:00,
2013-06-25 22:22:00,68.0,47.6,0.00,SSE,147,0.0,0.0,48,0.00,,---,0.00,VWS V14.01,2013-06-26 02:22:00,
2013-06-25 22:27:00,68.0,47.6,0.00,SSE,147,0.0,0.0,48,0.00,,---,0.00,VWS V14.01,2013-06-26 02:27:00,
2013-06-25 22:33:00,67.8,47.4,0.00,SSE,147,0.0,0.0,48,0.00,,---,0.00,VWS V14.01,2013-06-26 02:33:00,
2013-06-25 22:38:00,67.8,48.0,0.00,SSE,147,0.0,0.0,49,0.00,,---,0.00,VWS V14.01,2013-06-26 02:38:00,
2013-06-25 22:43:00,67.6,47.8,0.00,SSE,147,0.0,0.0,49,0.00,,---,0.00,VWS V14.01,2013-06-26 02:43:00,
2013-06-25 22:48:00,67.5,47.7,0.00,SSE,147,0.0,0.0,49,0.00,,---,0.00,VWS V14.01,2013-06-26 02:48:00,
2013-06-25 22:53:00,67.3,47.5,0.00,SSE,147,0.0,0.0,49,0.00,,---,0.00,VWS V14.01,2013-06-26 02:53:00,
2013-06-25 22:58:00,66.9,47.2,0.00,SSE,147,0.0,0.0,49,0.00,,---,0.00,VWS V14.01,2013-06-26 02:58:00,
2013-06-25 23:04:00,66.9,47.7,0.00,SSE,147,0.0,0.0,50,0.00,,---,0.00,VWS V14.01,2013-06-26 03:04:00,
2013-06-25 23:09:00,66.9,48.7,0.00,SSE,147,0.0,0.0,52,0.00,,---,0.00,VWS V14.01,2013-06-26 03:09:00,
2013-06-25 23:14:00,66.9,48.7,0.00,SSE,147,0.0,0.0,52,0.00,,---,0.00,VWS V14.01,2013-06-26 03:14:00,
2013-06-25 23:20:00,66.9,48.7,0.00,SSE,147,0.0,0.0,52,0.00,,---,0.00,VWS V14.01,2013-06-26 03:20:00,
2013-06-25 23:26:00,66.7,48.6,0.00,SSE,147,0.0,0.0,52,0.00,,---,0.00,VWS V14.01,2013-06-26 03:26:00,
2013-06-25 23:32:00,66.4,47.7,0.00,SSE,147,0.0,0.0,51,0.00,,---,0.00,VWS V14.01,2013-06-26 03:32:00,
2013-06-25 23:37:00,66.2,48.6,0.00,SSE,147,0.0,0.0,53,0.00,,---,0.00,VWS V14.01,2013-06-26 03:37:00,
2013-06-25 23:43:00,66.7,53.3,0.00,SSE,147,0.0,0.0,62,0.00,,---,0.00,VWS V14.01,2013-06-26 03:43:00,
2013-06-25 23:49:00,66.7,52.9,0.00,SSE,147,0.0,0.0,61,0.00,,---,0.00,VWS V14.01,2013-06-26 03:49:00,
2013-06-25 23:54:00,66.7,52.4,0.00,SSE,147,0.0,0.0,60,0.00,,---,0.00,VWS V14.01,2013-06-26 03:54:00,
2013-06-25 23:59:00,66.6,51.8,0.00,SSE,147,0.0,0.0,59,0.00,,---,0.00,VWS V14.01,2013-06-26 03:59:00,